sensor_id;sensor_type;location;lat;lon;timestamp;P1;durP1;ratioP1;P2;durP2;ratioP2
39890;SDS011;25564;53.312;9.790;2023-08-31T00:01:00;7.37;;;4.03;;
39890;SDS011;25564;53.312;9.790;2023-08-31T00:03:32;7.07;;;4.20;;
39890;SDS011;25564;53.312;9.790;2023-08-31T00:06:04;6.53;;;3.77;;
39890;SDS011;25564;53.312;9.790;2023-08-31T00:08:35;8.50;;;4.57;;
39890;SDS011;25564;53.312;9.790;2023-08-31T00:11:07;9.40;;;4.53;;
39890;SDS011;25564;53.312;9.790;2023-08-31T00:13:38;7.53;;;3.93;;
39890;SDS011;25564;53.312;9.790;2023-08-31T00:16:10;6.47;;;3.73;;
39890;SDS011;25564;53.312;9.790;2023-08-31T00:18:43;5.37;;;3.63;;
39890;SDS011;25564;53.312;9.790;2023-08-31T00:21:16;6.40;;;3.77;;
39890;SDS011;25564;53.312;9.790;2023-08-31T00:23:47;6.43;;;3.50;;
39890;SDS011;25564;53.312;9.790;2023-08-31T00:26:19;6.37;;;3.50;;
39890;SDS011;25564;53.312;9.790;2023-08-31T00:28:51;6.27;;;3.37;;
39890;SDS011;25564;53.312;9.790;2023-08-31T00:31:23;6.33;;;3.67;;
39890;SDS011;25564;53.312;9.790;2023-08-31T00:33:54;6.30;;;3.30;;
39890;SDS011;25564;53.312;9.790;2023-08-31T00:36:26;4.97;;;3.30;;
39890;SDS011;25564;53.312;9.790;2023-08-31T00:38:58;6.13;;;3.17;;
39890;SDS011;25564;53.312;9.790;2023-08-31T00:41:30;9.83;;;3.33;;
39890;SDS011;25564;53.312;9.790;2023-08-31T00:44:01;6.87;;;3.80;;
39890;SDS011;25564;53.312;9.790;2023-08-31T00:46:35;5.60;;;3.13;;
39890;SDS011;25564;53.312;9.790;2023-08-31T00:49:07;6.27;;;3.73;;
39890;SDS011;25564;53.312;9.790;2023-08-31T00:51:40;4.27;;;2.80;;
39890;SDS011;25564;53.312;9.790;2023-08-31T00:54:11;6.33;;;3.20;;
39890;SDS011;25564;53.312;9.790;2023-08-31T00:56:43;5.50;;;3.03;;
39890;SDS011;25564;53.312;9.790;2023-08-31T00:59:14;8.27;;;3.30;;
39890;SDS011;25564;53.312;9.790;2023-08-31T01:02:05;6.67;;;3.23;;
39890;SDS011;25564;53.312;9.790;2023-08-31T01:07:39;4.07;;;2.63;;
39890;SDS011;25564;53.312;9.790;2023-08-31T01:13:03;7.03;;;3.43;;
39890;SDS011;25564;53.312;9.790;2023-08-31T01:15:46;6.33;;;3.20;;
39890;SDS011;25564;53.312;9.790;2023-08-31T01:18:21;5.00;;;3.13;;
39890;SDS011;25564;53.312;9.790;2023-08-31T01:21:09;5.67;;;3.30;;
39890;SDS011;25564;53.312;9.790;2023-08-31T01:23:49;7.67;;;3.30;;
39890;SDS011;25564;53.312;9.790;2023-08-31T01:26:22;5.30;;;3.30;;
39890;SDS011;25564;53.312;9.790;2023-08-31T01:28:55;5.40;;;3.10;;
39890;SDS011;25564;53.312;9.790;2023-08-31T01:31:27;6.87;;;3.57;;
39890;SDS011;25564;53.312;9.790;2023-08-31T01:33:58;8.70;;;3.90;;
39890;SDS011;25564;53.312;9.790;2023-08-31T01:36:31;5.73;;;3.17;;
39890;SDS011;25564;53.312;9.790;2023-08-31T01:39:08;6.20;;;3.23;;
39890;SDS011;25564;53.312;9.790;2023-08-31T01:41:46;9.23;;;3.57;;
39890;SDS011;25564;53.312;9.790;2023-08-31T01:44:21;6.40;;;3.27;;
39890;SDS011;25564;53.312;9.790;2023-08-31T01:47:03;9.77;;;3.20;;
39890;SDS011;25564;53.312;9.790;2023-08-31T01:49:38;7.03;;;2.83;;
39890;SDS011;25564;53.312;9.790;2023-08-31T01:52:10;9.37;;;3.10;;
39890;SDS011;25564;53.312;9.790;2023-08-31T01:54:42;7.27;;;2.80;;
39890;SDS011;25564;53.312;9.790;2023-08-31T01:57:13;6.50;;;3.07;;
39890;SDS011;25564;53.312;9.790;2023-08-31T01:59:44;6.93;;;2.53;;
39890;SDS011;25564;53.312;9.790;2023-08-31T02:02:16;8.40;;;3.53;;
39890;SDS011;25564;53.312;9.790;2023-08-31T02:04:47;5.83;;;3.13;;
39890;SDS011;25564;53.312;9.790;2023-08-31T02:07:19;6.57;;;2.63;;
39890;SDS011;25564;53.312;9.790;2023-08-31T02:09:50;6.47;;;3.27;;
39890;SDS011;25564;53.312;9.790;2023-08-31T02:12:22;7.47;;;3.77;;
39890;SDS011;25564;53.312;9.790;2023-08-31T02:14:53;8.53;;;4.00;;
39890;SDS011;25564;53.312;9.790;2023-08-31T02:17:25;5.80;;;3.13;;
39890;SDS011;25564;53.312;9.790;2023-08-31T02:19:57;7.63;;;3.67;;
39890;SDS011;25564;53.312;9.790;2023-08-31T02:22:29;5.07;;;3.00;;
39890;SDS011;25564;53.312;9.790;2023-08-31T02:25:02;9.07;;;3.70;;
39890;SDS011;25564;53.312;9.790;2023-08-31T02:27:34;6.33;;;2.90;;
39890;SDS011;25564;53.312;9.790;2023-08-31T02:30:06;8.43;;;3.93;;
39890;SDS011;25564;53.312;9.790;2023-08-31T02:32:37;7.73;;;3.00;;
39890;SDS011;25564;53.312;9.790;2023-08-31T02:35:09;7.20;;;3.53;;
39890;SDS011;25564;53.312;9.790;2023-08-31T02:37:41;7.20;;;3.80;;
39890;SDS011;25564;53.312;9.790;2023-08-31T02:40:13;7.80;;;3.90;;
39890;SDS011;25564;53.312;9.790;2023-08-31T02:42:45;7.73;;;3.77;;
39890;SDS011;25564;53.312;9.790;2023-08-31T02:45:16;6.37;;;3.47;;
39890;SDS011;25564;53.312;9.790;2023-08-31T02:47:48;6.47;;;2.90;;
39890;SDS011;25564;53.312;9.790;2023-08-31T02:50:21;13.17;;;3.47;;
39890;SDS011;25564;53.312;9.790;2023-08-31T02:52:52;6.57;;;3.10;;
39890;SDS011;25564;53.312;9.790;2023-08-31T02:55:24;7.80;;;3.50;;
39890;SDS011;25564;53.312;9.790;2023-08-31T02:57:55;5.60;;;3.00;;
39890;SDS011;25564;53.312;9.790;2023-08-31T03:00:27;7.53;;;2.90;;
39890;SDS011;25564;53.312;9.790;2023-08-31T03:02:59;9.63;;;2.90;;
39890;SDS011;25564;53.312;9.790;2023-08-31T03:05:31;8.00;;;3.30;;
39890;SDS011;25564;53.312;9.790;2023-08-31T03:08:02;7.27;;;3.50;;
39890;SDS011;25564;53.312;9.790;2023-08-31T03:10:35;6.63;;;2.87;;
39890;SDS011;25564;53.312;9.790;2023-08-31T03:13:08;7.03;;;3.60;;
39890;SDS011;25564;53.312;9.790;2023-08-31T03:15:39;6.23;;;2.87;;
39890;SDS011;25564;53.312;9.790;2023-08-31T03:18:11;6.40;;;3.20;;
39890;SDS011;25564;53.312;9.790;2023-08-31T03:20:42;7.83;;;3.23;;
39890;SDS011;25564;53.312;9.790;2023-08-31T03:23:14;8.23;;;3.63;;
39890;SDS011;25564;53.312;9.790;2023-08-31T03:25:46;5.33;;;3.00;;
39890;SDS011;25564;53.312;9.790;2023-08-31T03:28:17;5.10;;;2.67;;
39890;SDS011;25564;53.312;9.790;2023-08-31T03:30:54;8.93;;;3.17;;
39890;SDS011;25564;53.312;9.790;2023-08-31T03:33:28;5.07;;;3.03;;
39890;SDS011;25564;53.312;9.790;2023-08-31T03:36:00;6.90;;;3.33;;
39890;SDS011;25564;53.312;9.790;2023-08-31T03:38:33;6.70;;;2.90;;
39890;SDS011;25564;53.312;9.790;2023-08-31T03:41:09;5.13;;;2.60;;
39890;SDS011;25564;53.312;9.790;2023-08-31T03:43:40;6.33;;;3.33;;
39890;SDS011;25564;53.312;9.790;2023-08-31T03:46:12;4.40;;;2.53;;
39890;SDS011;25564;53.312;9.790;2023-08-31T03:48:43;6.67;;;2.80;;
39890;SDS011;25564;53.312;9.790;2023-08-31T03:51:15;7.60;;;3.17;;
39890;SDS011;25564;53.312;9.790;2023-08-31T03:53:47;5.67;;;3.10;;
39890;SDS011;25564;53.312;9.790;2023-08-31T03:56:18;5.37;;;2.67;;
39890;SDS011;25564;53.312;9.790;2023-08-31T03:58:50;6.80;;;2.87;;
39890;SDS011;25564;53.312;9.790;2023-08-31T04:01:22;6.60;;;2.70;;
39890;SDS011;25564;53.312;9.790;2023-08-31T04:03:54;6.90;;;2.67;;
39890;SDS011;25564;53.312;9.790;2023-08-31T04:06:25;5.60;;;2.63;;
39890;SDS011;25564;53.312;9.790;2023-08-31T04:08:58;7.73;;;4.37;;
39890;SDS011;25564;53.312;9.790;2023-08-31T04:11:30;7.27;;;3.20;;
39890;SDS011;25564;53.312;9.790;2023-08-31T04:14:01;8.63;;;3.33;;
39890;SDS011;25564;53.312;9.790;2023-08-31T04:16:32;7.97;;;2.80;;
39890;SDS011;25564;53.312;9.790;2023-08-31T04:19:04;8.40;;;2.37;;
39890;SDS011;25564;53.312;9.790;2023-08-31T04:21:35;8.90;;;2.70;;
39890;SDS011;25564;53.312;9.790;2023-08-31T04:24:08;4.97;;;2.13;;
39890;SDS011;25564;53.312;9.790;2023-08-31T04:26:40;3.93;;;2.10;;
39890;SDS011;25564;53.312;9.790;2023-08-31T04:29:11;6.87;;;2.80;;
39890;SDS011;25564;53.312;9.790;2023-08-31T04:31:43;6.40;;;2.73;;
39890;SDS011;25564;53.312;9.790;2023-08-31T04:34:14;5.17;;;3.00;;
39890;SDS011;25564;53.312;9.790;2023-08-31T04:36:46;6.70;;;2.83;;
39890;SDS011;25564;53.312;9.790;2023-08-31T04:39:17;4.63;;;2.70;;
39890;SDS011;25564;53.312;9.790;2023-08-31T04:41:49;7.10;;;2.87;;
39890;SDS011;25564;53.312;9.790;2023-08-31T04:44:20;7.33;;;2.73;;
39890;SDS011;25564;53.312;9.790;2023-08-31T04:46:51;7.23;;;3.30;;
39890;SDS011;25564;53.312;9.790;2023-08-31T04:49:23;6.47;;;2.60;;
39890;SDS011;25564;53.312;9.790;2023-08-31T04:51:55;6.33;;;2.70;;
39890;SDS011;25564;53.312;9.790;2023-08-31T04:54:27;6.60;;;3.53;;
39890;SDS011;25564;53.312;9.790;2023-08-31T04:56:58;4.67;;;2.60;;
39890;SDS011;25564;53.312;9.790;2023-08-31T04:59:30;9.00;;;2.90;;
39890;SDS011;25564;53.312;9.790;2023-08-31T05:02:01;6.03;;;2.87;;
39890;SDS011;25564;53.312;9.790;2023-08-31T05:04:34;6.70;;;2.93;;
39890;SDS011;25564;53.312;9.790;2023-08-31T05:07:05;6.83;;;3.23;;
39890;SDS011;25564;53.312;9.790;2023-08-31T05:09:37;4.83;;;2.90;;
39890;SDS011;25564;53.312;9.790;2023-08-31T05:12:08;5.83;;;2.50;;
39890;SDS011;25564;53.312;9.790;2023-08-31T05:14:42;4.03;;;2.97;;
39890;SDS011;25564;53.312;9.790;2023-08-31T05:17:14;6.83;;;2.40;;
39890;SDS011;25564;53.312;9.790;2023-08-31T05:19:45;7.53;;;3.20;;
39890;SDS011;25564;53.312;9.790;2023-08-31T05:22:18;7.80;;;3.43;;
39890;SDS011;25564;53.312;9.790;2023-08-31T05:24:49;7.53;;;2.57;;
39890;SDS011;25564;53.312;9.790;2023-08-31T05:27:21;7.80;;;3.00;;
39890;SDS011;25564;53.312;9.790;2023-08-31T05:29:52;9.77;;;3.13;;
39890;SDS011;25564;53.312;9.790;2023-08-31T05:32:27;8.20;;;2.90;;
39890;SDS011;25564;53.312;9.790;2023-08-31T05:34:59;8.63;;;3.15;;
39890;SDS011;25564;53.312;9.790;2023-08-31T05:37:32;9.97;;;3.30;;
39890;SDS011;25564;53.312;9.790;2023-08-31T05:40:05;6.80;;;2.70;;
39890;SDS011;25564;53.312;9.790;2023-08-31T05:42:40;6.77;;;2.60;;
39890;SDS011;25564;53.312;9.790;2023-08-31T05:45:12;6.23;;;3.17;;
39890;SDS011;25564;53.312;9.790;2023-08-31T05:47:43;7.90;;;3.50;;
39890;SDS011;25564;53.312;9.790;2023-08-31T05:50:15;8.97;;;3.57;;
39890;SDS011;25564;53.312;9.790;2023-08-31T05:52:46;8.40;;;3.70;;
39890;SDS011;25564;53.312;9.790;2023-08-31T05:55:18;6.73;;;3.57;;
39890;SDS011;25564;53.312;9.790;2023-08-31T05:57:49;8.37;;;3.60;;
39890;SDS011;25564;53.312;9.790;2023-08-31T06:00:20;7.33;;;3.73;;
39890;SDS011;25564;53.312;9.790;2023-08-31T06:02:55;7.57;;;3.73;;
39890;SDS011;25564;53.312;9.790;2023-08-31T06:05:26;6.03;;;3.57;;
39890;SDS011;25564;53.312;9.790;2023-08-31T06:08:00;7.67;;;2.93;;
39890;SDS011;25564;53.312;9.790;2023-08-31T06:10:31;8.53;;;3.90;;
39890;SDS011;25564;53.312;9.790;2023-08-31T06:13:02;8.27;;;3.40;;
39890;SDS011;25564;53.312;9.790;2023-08-31T06:15:34;8.13;;;3.07;;
39890;SDS011;25564;53.312;9.790;2023-08-31T06:18:06;7.20;;;3.23;;
39890;SDS011;25564;53.312;9.790;2023-08-31T06:20:38;7.57;;;3.40;;
39890;SDS011;25564;53.312;9.790;2023-08-31T06:23:09;6.50;;;3.43;;
39890;SDS011;25564;53.312;9.790;2023-08-31T06:25:42;6.97;;;3.70;;
39890;SDS011;25564;53.312;9.790;2023-08-31T06:28:13;7.27;;;3.53;;
39890;SDS011;25564;53.312;9.790;2023-08-31T06:30:45;9.00;;;3.07;;
39890;SDS011;25564;53.312;9.790;2023-08-31T06:33:19;5.63;;;3.50;;
39890;SDS011;25564;53.312;9.790;2023-08-31T06:35:51;9.57;;;3.53;;
39890;SDS011;25564;53.312;9.790;2023-08-31T06:38:23;6.50;;;3.50;;
39890;SDS011;25564;53.312;9.790;2023-08-31T06:40:54;8.77;;;3.10;;
39890;SDS011;25564;53.312;9.790;2023-08-31T06:43:30;6.30;;;3.13;;
39890;SDS011;25564;53.312;9.790;2023-08-31T06:46:01;6.57;;;3.27;;
39890;SDS011;25564;53.312;9.790;2023-08-31T06:48:52;6.80;;;3.37;;
39890;SDS011;25564;53.312;9.790;2023-08-31T06:51:23;11.27;;;2.97;;
39890;SDS011;25564;53.312;9.790;2023-08-31T06:53:55;7.43;;;3.20;;
39890;SDS011;25564;53.312;9.790;2023-08-31T06:56:27;8.03;;;3.50;;
39890;SDS011;25564;53.312;9.790;2023-08-31T06:58:58;6.30;;;3.37;;
39890;SDS011;25564;53.312;9.790;2023-08-31T07:01:30;6.60;;;2.53;;
39890;SDS011;25564;53.312;9.790;2023-08-31T07:04:03;7.00;;;3.17;;
39890;SDS011;25564;53.312;9.790;2023-08-31T07:06:35;8.47;;;3.10;;
39890;SDS011;25564;53.312;9.790;2023-08-31T07:09:07;6.93;;;3.20;;
39890;SDS011;25564;53.312;9.790;2023-08-31T07:11:39;8.87;;;2.87;;
39890;SDS011;25564;53.312;9.790;2023-08-31T07:14:12;9.83;;;3.13;;
39890;SDS011;25564;53.312;9.790;2023-08-31T07:16:43;6.33;;;3.10;;
39890;SDS011;25564;53.312;9.790;2023-08-31T07:19:14;6.83;;;2.90;;
39890;SDS011;25564;53.312;9.790;2023-08-31T07:21:46;6.93;;;2.70;;
39890;SDS011;25564;53.312;9.790;2023-08-31T07:24:18;5.47;;;2.87;;
39890;SDS011;25564;53.312;9.790;2023-08-31T07:26:50;5.90;;;3.10;;
39890;SDS011;25564;53.312;9.790;2023-08-31T07:29:22;5.47;;;2.90;;
39890;SDS011;25564;53.312;9.790;2023-08-31T07:31:53;6.63;;;2.40;;
39890;SDS011;25564;53.312;9.790;2023-08-31T07:34:25;7.27;;;3.10;;
39890;SDS011;25564;53.312;9.790;2023-08-31T07:36:56;5.53;;;3.27;;
39890;SDS011;25564;53.312;9.790;2023-08-31T07:39:28;7.50;;;3.10;;
39890;SDS011;25564;53.312;9.790;2023-08-31T07:41:59;5.18;;;2.45;;
39890;SDS011;25564;53.312;9.790;2023-08-31T07:44:30;5.87;;;2.70;;
39890;SDS011;25564;53.312;9.790;2023-08-31T07:47:02;4.63;;;2.83;;
39890;SDS011;25564;53.312;9.790;2023-08-31T07:49:34;12.90;;;2.97;;
39890;SDS011;25564;53.312;9.790;2023-08-31T07:52:05;4.65;;;2.42;;
39890;SDS011;25564;53.312;9.790;2023-08-31T07:54:37;9.18;;;2.90;;
39890;SDS011;25564;53.312;9.790;2023-08-31T07:57:08;7.30;;;3.00;;
39890;SDS011;25564;53.312;9.790;2023-08-31T07:59:39;6.60;;;2.67;;
39890;SDS011;25564;53.312;9.790;2023-08-31T08:02:12;5.60;;;3.03;;
39890;SDS011;25564;53.312;9.790;2023-08-31T08:04:45;4.95;;;2.70;;
39890;SDS011;25564;53.312;9.790;2023-08-31T08:07:17;5.53;;;2.88;;
39890;SDS011;25564;53.312;9.790;2023-08-31T08:09:48;5.82;;;3.08;;
39890;SDS011;25564;53.312;9.790;2023-08-31T08:12:20;5.63;;;2.60;;
39890;SDS011;25564;53.312;9.790;2023-08-31T08:14:51;5.47;;;2.88;;
39890;SDS011;25564;53.312;9.790;2023-08-31T08:17:22;6.18;;;2.83;;
39890;SDS011;25564;53.312;9.790;2023-08-31T08:19:54;6.93;;;3.30;;
39890;SDS011;25564;53.312;9.790;2023-08-31T08:22:25;6.28;;;2.88;;
39890;SDS011;25564;53.312;9.790;2023-08-31T08:24:57;6.20;;;3.05;;
39890;SDS011;25564;53.312;9.790;2023-08-31T08:27:28;5.32;;;3.05;;
39890;SDS011;25564;53.312;9.790;2023-08-31T08:30:00;7.35;;;2.83;;
39890;SDS011;25564;53.312;9.790;2023-08-31T08:32:32;6.53;;;2.75;;
39890;SDS011;25564;53.312;9.790;2023-08-31T08:35:04;11.30;;;3.80;;
39890;SDS011;25564;53.312;9.790;2023-08-31T08:37:36;6.47;;;2.53;;
39890;SDS011;25564;53.312;9.790;2023-08-31T08:40:09;4.65;;;2.28;;
39890;SDS011;25564;53.312;9.790;2023-08-31T08:42:41;5.82;;;2.65;;
39890;SDS011;25564;53.312;9.790;2023-08-31T08:45:14;5.63;;;2.50;;
39890;SDS011;25564;53.312;9.790;2023-08-31T08:47:49;3.92;;;2.55;;
39890;SDS011;25564;53.312;9.790;2023-08-31T08:50:22;5.88;;;3.13;;
39890;SDS011;25564;53.312;9.790;2023-08-31T08:52:54;7.90;;;2.70;;
39890;SDS011;25564;53.312;9.790;2023-08-31T08:55:27;5.68;;;2.50;;
39890;SDS011;25564;53.312;9.790;2023-08-31T08:57:58;4.32;;;2.75;;
39890;SDS011;25564;53.312;9.790;2023-08-31T09:00:34;4.50;;;2.80;;
39890;SDS011;25564;53.312;9.790;2023-08-31T09:03:08;6.05;;;2.60;;
39890;SDS011;25564;53.312;9.790;2023-08-31T09:05:39;5.57;;;2.60;;
39890;SDS011;25564;53.312;9.790;2023-08-31T09:08:11;5.93;;;2.25;;
39890;SDS011;25564;53.312;9.790;2023-08-31T09:10:46;6.05;;;2.63;;
39890;SDS011;25564;53.312;9.790;2023-08-31T09:13:17;5.40;;;2.53;;
39890;SDS011;25564;53.312;9.790;2023-08-31T09:15:50;3.58;;;2.55;;
39890;SDS011;25564;53.312;9.790;2023-08-31T09:18:31;4.80;;;2.47;;
39890;SDS011;25564;53.312;9.790;2023-08-31T09:21:03;3.78;;;2.50;;
39890;SDS011;25564;53.312;9.790;2023-08-31T09:23:35;3.50;;;2.67;;
39890;SDS011;25564;53.312;9.790;2023-08-31T09:26:06;5.63;;;2.25;;
39890;SDS011;25564;53.312;9.790;2023-08-31T09:28:40;3.50;;;2.22;;
39890;SDS011;25564;53.312;9.790;2023-08-31T09:31:12;4.70;;;2.30;;
39890;SDS011;25564;53.312;9.790;2023-08-31T09:33:50;5.18;;;2.67;;
39890;SDS011;25564;53.312;9.790;2023-08-31T09:36:22;4.95;;;2.60;;
39890;SDS011;25564;53.312;9.790;2023-08-31T09:38:57;4.60;;;2.72;;
39890;SDS011;25564;53.312;9.790;2023-08-31T09:41:30;5.20;;;2.55;;
39890;SDS011;25564;53.312;9.790;2023-08-31T09:44:35;3.75;;;2.42;;
39890;SDS011;25564;53.312;9.790;2023-08-31T09:46:59;6.10;;;2.60;;
39890;SDS011;25564;53.312;9.790;2023-08-31T09:49:31;4.50;;;2.70;;
39890;SDS011;25564;53.312;9.790;2023-08-31T09:52:04;3.45;;;2.30;;
39890;SDS011;25564;53.312;9.790;2023-08-31T09:54:37;5.28;;;2.80;;
39890;SDS011;25564;53.312;9.790;2023-08-31T09:57:10;4.50;;;2.45;;
39890;SDS011;25564;53.312;9.790;2023-08-31T09:59:44;3.45;;;2.25;;
39890;SDS011;25564;53.312;9.790;2023-08-31T10:02:15;9.40;;;3.33;;
39890;SDS011;25564;53.312;9.790;2023-08-31T10:04:48;5.82;;;2.53;;
39890;SDS011;25564;53.312;9.790;2023-08-31T10:07:23;3.40;;;2.30;;
39890;SDS011;25564;53.312;9.790;2023-08-31T10:09:55;3.55;;;2.20;;
39890;SDS011;25564;53.312;9.790;2023-08-31T10:12:28;5.15;;;2.15;;
39890;SDS011;25564;53.312;9.790;2023-08-31T10:15:00;4.35;;;2.38;;
39890;SDS011;25564;53.312;9.790;2023-08-31T10:17:32;3.38;;;1.83;;
39890;SDS011;25564;53.312;9.790;2023-08-31T10:20:05;3.33;;;2.72;;
39890;SDS011;25564;53.312;9.790;2023-08-31T10:25:12;4.15;;;2.70;;
39890;SDS011;25564;53.312;9.790;2023-08-31T10:27:43;4.05;;;2.25;;
39890;SDS011;25564;53.312;9.790;2023-08-31T10:33:38;3.60;;;2.45;;
39890;SDS011;25564;53.312;9.790;2023-08-31T10:38:26;4.25;;;2.50;;
39890;SDS011;25564;53.312;9.790;2023-08-31T10:43:51;3.67;;;2.35;;
39890;SDS011;25564;53.312;9.790;2023-08-31T10:46:31;4.28;;;2.60;;
39890;SDS011;25564;53.312;9.790;2023-08-31T10:51:41;4.03;;;2.45;;
39890;SDS011;25564;53.312;9.790;2023-08-31T10:59:50;3.50;;;2.33;;
39890;SDS011;25564;53.312;9.790;2023-08-31T11:05:14;4.68;;;2.30;;
39890;SDS011;25564;53.312;9.790;2023-08-31T11:07:47;3.03;;;1.90;;
39890;SDS011;25564;53.312;9.790;2023-08-31T11:10:24;4.00;;;1.85;;
39890;SDS011;25564;53.312;9.790;2023-08-31T11:12:59;2.72;;;1.95;;
39890;SDS011;25564;53.312;9.790;2023-08-31T11:15:31;1.95;;;1.48;;
39890;SDS011;25564;53.312;9.790;2023-08-31T11:18:03;4.07;;;1.85;;
39890;SDS011;25564;53.312;9.790;2023-08-31T11:20:36;3.20;;;1.88;;
39890;SDS011;25564;53.312;9.790;2023-08-31T11:23:08;4.57;;;2.08;;
39890;SDS011;25564;53.312;9.790;2023-08-31T11:25:39;3.67;;;1.85;;
39890;SDS011;25564;53.312;9.790;2023-08-31T11:28:11;2.75;;;1.80;;
39890;SDS011;25564;53.312;9.790;2023-08-31T11:30:42;2.72;;;1.52;;
39890;SDS011;25564;53.312;9.790;2023-08-31T11:33:15;4.68;;;1.52;;
39890;SDS011;25564;53.312;9.790;2023-08-31T11:35:47;4.32;;;1.48;;
39890;SDS011;25564;53.312;9.790;2023-08-31T11:38:18;3.67;;;1.55;;
39890;SDS011;25564;53.312;9.790;2023-08-31T11:40:50;2.92;;;1.27;;
39890;SDS011;25564;53.312;9.790;2023-08-31T11:43:26;5.88;;;1.13;;
39890;SDS011;25564;53.312;9.790;2023-08-31T11:45:58;4.63;;;1.17;;
39890;SDS011;25564;53.312;9.790;2023-08-31T11:48:32;1.70;;;0.90;;
39890;SDS011;25564;53.312;9.790;2023-08-31T11:51:04;3.85;;;1.02;;
39890;SDS011;25564;53.312;9.790;2023-08-31T11:53:36;4.10;;;1.05;;
39890;SDS011;25564;53.312;9.790;2023-08-31T11:56:08;1.90;;;0.70;;
39890;SDS011;25564;53.312;9.790;2023-08-31T11:58:42;3.10;;;1.00;;
39890;SDS011;25564;53.312;9.790;2023-08-31T12:01:32;5.05;;;1.30;;
39890;SDS011;25564;53.312;9.790;2023-08-31T12:04:09;1.85;;;0.50;;
39890;SDS011;25564;53.312;9.790;2023-08-31T12:06:41;1.65;;;0.70;;
39890;SDS011;25564;53.312;9.790;2023-08-31T12:11:49;1.33;;;0.70;;
39890;SDS011;25564;53.312;9.790;2023-08-31T12:14:24;1.52;;;0.90;;
39890;SDS011;25564;53.312;9.790;2023-08-31T12:17:01;1.52;;;1.08;;
39890;SDS011;25564;53.312;9.790;2023-08-31T12:19:37;1.55;;;0.90;;
39890;SDS011;25564;53.312;9.790;2023-08-31T12:22:11;2.10;;;1.05;;
39890;SDS011;25564;53.312;9.790;2023-08-31T12:24:45;1.50;;;0.70;;
39890;SDS011;25564;53.312;9.790;2023-08-31T12:27:16;1.73;;;0.60;;
39890;SDS011;25564;53.312;9.790;2023-08-31T12:29:48;2.40;;;0.98;;
39890;SDS011;25564;53.312;9.790;2023-08-31T12:32:21;1.25;;;0.70;;
39890;SDS011;25564;53.312;9.790;2023-08-31T12:34:52;2.30;;;0.82;;
39890;SDS011;25564;53.312;9.790;2023-08-31T12:37:24;2.38;;;1.08;;
39890;SDS011;25564;53.312;9.790;2023-08-31T12:39:55;0.90;;;0.60;;
39890;SDS011;25564;53.312;9.790;2023-08-31T12:42:26;1.05;;;0.63;;
39890;SDS011;25564;53.312;9.790;2023-08-31T12:44:58;0.85;;;0.40;;
39890;SDS011;25564;53.312;9.790;2023-08-31T12:47:29;4.13;;;0.95;;
39890;SDS011;25564;53.312;9.790;2023-08-31T12:50:01;4.07;;;0.80;;
39890;SDS011;25564;53.312;9.790;2023-08-31T12:52:34;1.80;;;0.65;;
39890;SDS011;25564;53.312;9.790;2023-08-31T12:55:05;1.63;;;0.75;;
39890;SDS011;25564;53.312;9.790;2023-08-31T12:57:37;1.70;;;0.60;;
39890;SDS011;25564;53.312;9.790;2023-08-31T13:00:09;1.27;;;0.70;;
39890;SDS011;25564;53.312;9.790;2023-08-31T13:05:16;4.20;;;1.10;;
39890;SDS011;25564;53.312;9.790;2023-08-31T13:07:48;2.35;;;0.68;;
39890;SDS011;25564;53.312;9.790;2023-08-31T13:10:19;3.72;;;0.80;;
39890;SDS011;25564;53.312;9.790;2023-08-31T13:12:51;1.35;;;0.63;;
39890;SDS011;25564;53.312;9.790;2023-08-31T13:15:22;1.63;;;0.85;;
39890;SDS011;25564;53.312;9.790;2023-08-31T13:17:53;3.38;;;0.80;;
39890;SDS011;25564;53.312;9.790;2023-08-31T13:20:25;1.02;;;0.70;;
39890;SDS011;25564;53.312;9.790;2023-08-31T13:22:58;1.00;;;0.45;;
39890;SDS011;25564;53.312;9.790;2023-08-31T13:25:30;1.58;;;0.52;;
39890;SDS011;25564;53.312;9.790;2023-08-31T13:28:02;2.20;;;0.77;;
39890;SDS011;25564;53.312;9.790;2023-08-31T13:30:35;0.80;;;0.80;;
39890;SDS011;25564;53.312;9.790;2023-08-31T13:33:06;0.85;;;0.50;;
39890;SDS011;25564;53.312;9.790;2023-08-31T13:35:38;0.55;;;0.47;;
39890;SDS011;25564;53.312;9.790;2023-08-31T13:38:09;2.65;;;0.60;;
39890;SDS011;25564;53.312;9.790;2023-08-31T13:40:41;0.88;;;0.55;;
39890;SDS011;25564;53.312;9.790;2023-08-31T13:43:13;1.90;;;0.55;;
39890;SDS011;25564;53.312;9.790;2023-08-31T13:45:44;0.95;;;0.52;;
39890;SDS011;25564;53.312;9.790;2023-08-31T13:48:16;2.33;;;0.70;;
39890;SDS011;25564;53.312;9.790;2023-08-31T13:50:47;1.13;;;0.55;;
39890;SDS011;25564;53.312;9.790;2023-08-31T13:53:19;1.25;;;0.63;;
39890;SDS011;25564;53.312;9.790;2023-08-31T13:55:50;1.50;;;0.50;;
39890;SDS011;25564;53.312;9.790;2023-08-31T13:58:22;2.80;;;0.82;;
39890;SDS011;25564;53.312;9.790;2023-08-31T14:00:53;2.90;;;0.60;;
39890;SDS011;25564;53.312;9.790;2023-08-31T14:03:25;4.25;;;0.80;;
39890;SDS011;25564;53.312;9.790;2023-08-31T14:05:56;2.50;;;0.70;;
39890;SDS011;25564;53.312;9.790;2023-08-31T14:08:28;1.23;;;0.70;;
39890;SDS011;25564;53.312;9.790;2023-08-31T14:10:59;2.85;;;0.73;;
39890;SDS011;25564;53.312;9.790;2023-08-31T14:13:30;2.13;;;0.57;;
39890;SDS011;25564;53.312;9.790;2023-08-31T14:16:02;3.45;;;0.80;;
39890;SDS011;25564;53.312;9.790;2023-08-31T14:18:34;0.40;;;0.32;;
39890;SDS011;25564;53.312;9.790;2023-08-31T14:21:06;0.65;;;0.55;;
39890;SDS011;25564;53.312;9.790;2023-08-31T14:23:37;0.32;;;0.32;;
39890;SDS011;25564;53.312;9.790;2023-08-31T14:26:09;2.35;;;0.60;;
39890;SDS011;25564;53.312;9.790;2023-08-31T14:28:42;1.10;;;0.40;;
39890;SDS011;25564;53.312;9.790;2023-08-31T14:31:13;0.50;;;0.33;;
39890;SDS011;25564;53.312;9.790;2023-08-31T14:33:46;1.15;;;0.50;;
39890;SDS011;25564;53.312;9.790;2023-08-31T14:36:18;1.50;;;0.43;;
39890;SDS011;25564;53.312;9.790;2023-08-31T14:38:49;1.08;;;0.57;;
39890;SDS011;25564;53.312;9.790;2023-08-31T14:41:20;0.65;;;0.60;;
39890;SDS011;25564;53.312;9.790;2023-08-31T14:43:52;1.98;;;0.57;;
39890;SDS011;25564;53.312;9.790;2023-08-31T14:46:23;0.80;;;0.30;;
39890;SDS011;25564;53.312;9.790;2023-08-31T14:48:55;0.95;;;0.40;;
39890;SDS011;25564;53.312;9.790;2023-08-31T14:51:27;1.85;;;0.40;;
39890;SDS011;25564;53.312;9.790;2023-08-31T14:53:59;1.77;;;0.40;;
39890;SDS011;25564;53.312;9.790;2023-08-31T14:56:30;1.23;;;0.55;;
39890;SDS011;25564;53.312;9.790;2023-08-31T14:59:01;1.40;;;0.60;;
39890;SDS011;25564;53.312;9.790;2023-08-31T15:01:33;1.05;;;0.38;;
39890;SDS011;25564;53.312;9.790;2023-08-31T15:04:04;0.30;;;0.13;;
39890;SDS011;25564;53.312;9.790;2023-08-31T15:06:36;1.55;;;0.52;;
39890;SDS011;25564;53.312;9.790;2023-08-31T15:09:07;0.93;;;0.43;;
39890;SDS011;25564;53.312;9.790;2023-08-31T15:11:39;2.45;;;0.50;;
39890;SDS011;25564;53.312;9.790;2023-08-31T15:14:11;2.20;;;0.65;;
39890;SDS011;25564;53.312;9.790;2023-08-31T15:16:42;0.98;;;0.60;;
39890;SDS011;25564;53.312;9.790;2023-08-31T15:19:15;1.35;;;0.70;;
39890;SDS011;25564;53.312;9.790;2023-08-31T15:21:46;2.92;;;0.60;;
39890;SDS011;25564;53.312;9.790;2023-08-31T15:24:18;2.00;;;0.57;;
39890;SDS011;25564;53.312;9.790;2023-08-31T15:26:49;0.40;;;0.40;;
39890;SDS011;25564;53.312;9.790;2023-08-31T15:29:21;1.60;;;0.52;;
39890;SDS011;25564;53.312;9.790;2023-08-31T15:31:53;2.60;;;0.50;;
39890;SDS011;25564;53.312;9.790;2023-08-31T15:34:24;1.33;;;0.52;;
39890;SDS011;25564;53.312;9.790;2023-08-31T15:36:55;1.48;;;0.50;;
39890;SDS011;25564;53.312;9.790;2023-08-31T15:39:28;2.58;;;0.70;;
39890;SDS011;25564;53.312;9.790;2023-08-31T15:42:00;1.00;;;0.60;;
39890;SDS011;25564;53.312;9.790;2023-08-31T15:44:31;2.90;;;0.98;;
39890;SDS011;25564;53.312;9.790;2023-08-31T15:47:03;2.15;;;0.57;;
39890;SDS011;25564;53.312;9.790;2023-08-31T15:49:34;1.92;;;0.60;;
39890;SDS011;25564;53.312;9.790;2023-08-31T15:52:06;0.40;;;0.40;;